Terminal Aerodrome Forecast
Issued by NWS Twin Cities, MN

Home | Current Version | Previous Version | Graphics & Text | Print | Product List | Glossary On
Versions: 1 2 3 4 5 6 7 8 9 10 11 12 13 14 15
000
FTUS43 KMPX 121100
TAFEAU
TAF
KEAU 121120Z 1212/1312 VRB02KT P6SM BKN060 BKN110
     FM121500 32006KT P6SM -SHRA BKN040
     FM122200 30003KT P6SM BKN060 BKN110
     FM130000 VRB02KT P6SM SCT100=

USA.gov is the U.S. government's official web portal to all federal, state and local government web resources and services.